createdAt,value
2019-05-28T00:02:06.870Z,3.00
2019-05-28T00:04:33.243Z,4.93
2019-05-28T00:06:59.641Z,4.60
2019-05-28T00:09:26.156Z,3.73
2019-05-28T00:11:52.751Z,3.53
2019-05-28T00:14:19.139Z,5.20
2019-05-28T00:16:45.901Z,4.37
2019-05-28T00:19:12.262Z,4.43
2019-05-28T00:21:38.570Z,4.40
2019-05-28T00:24:04.839Z,5.47
2019-05-28T00:26:31.222Z,5.90
2019-05-28T00:28:57.482Z,4.20
2019-05-28T00:31:23.780Z,5.03
2019-05-28T00:33:50.142Z,5.90
2019-05-28T00:36:16.539Z,5.53
2019-05-28T00:38:43.254Z,5.30
2019-05-28T00:41:09.739Z,7.00
2019-05-28T00:43:36.008Z,4.23
2019-05-28T00:46:02.501Z,4.90
2019-05-28T00:48:29.287Z,4.60
2019-05-28T00:50:55.670Z,5.40
2019-05-28T00:53:22.055Z,4.23
2019-05-28T00:55:48.907Z,3.43
2019-05-28T00:58:16.192Z,4.17
2019-05-28T01:00:47.945Z,5.90
2019-05-28T01:03:15.166Z,8.57
2019-05-28T01:05:41.537Z,5.13
2019-05-28T01:08:08.031Z,3.70
2019-05-28T01:10:34.310Z,3.40
2019-05-28T01:13:14.215Z,3.90
2019-05-28T01:15:40.639Z,3.80
2019-05-28T01:18:07.495Z,4.07
2019-05-28T01:20:34.229Z,4.93
2019-05-28T01:23:01.870Z,4.40
2019-05-28T01:25:28.327Z,4.60
2019-05-28T01:27:54.598Z,5.80
2019-05-28T01:30:21.603Z,5.10
2019-05-28T01:32:47.881Z,5.37
2019-05-28T01:35:14.374Z,4.30
2019-05-28T01:37:40.654Z,4.10
2019-05-28T01:40:08.035Z,5.97
2019-05-28T01:42:34.322Z,4.70
2019-05-28T01:45:01.612Z,3.00
2019-05-28T01:47:28.378Z,5.07
2019-05-28T01:49:54.782Z,5.07
2019-05-28T01:52:21.456Z,5.97
2019-05-28T01:54:47.719Z,3.77
2019-05-28T01:57:14.016Z,3.93
2019-05-28T01:59:40.279Z,5.30
2019-05-28T02:02:07.083Z,4.93
2019-05-28T02:04:33.361Z,4.73
2019-05-28T02:06:59.843Z,3.40
2019-05-28T02:09:26.211Z,5.70
2019-05-28T02:11:52.819Z,4.60
2019-05-28T02:14:19.123Z,4.10
2019-05-28T02:16:45.782Z,4.20
2019-05-28T02:19:12.042Z,5.53
2019-05-28T02:21:38.348Z,4.23
2019-05-28T02:24:04.929Z,5.10
2019-05-28T02:26:31.647Z,4.77
2019-05-28T02:28:57.951Z,5.07
2019-05-28T02:31:27.800Z,5.90
2019-05-28T02:33:52.521Z,4.57
2019-05-28T02:36:18.995Z,3.93
2019-05-28T02:38:45.379Z,4.23
2019-05-28T02:41:12.066Z,3.80
2019-05-28T02:43:38.708Z,5.47
2019-05-28T02:46:05.189Z,6.07
2019-05-28T02:48:31.480Z,5.30
2019-05-28T02:50:59.857Z,4.63
2019-05-28T02:53:27.054Z,5.00
2019-05-28T02:55:55.038Z,3.27
2019-05-28T02:58:28.854Z,4.20
2019-05-28T03:00:56.815Z,5.60
2019-05-28T03:03:24.538Z,4.80
2019-05-28T03:05:51.506Z,3.70
2019-05-28T03:08:21.987Z,5.30
2019-05-28T03:11:04.534Z,4.50
2019-05-28T03:13:16.578Z,4.03
2019-05-28T03:15:46.440Z,4.03
2019-05-28T03:18:16.783Z,4.97
2019-05-28T03:20:43.677Z,6.57
2019-05-28T03:23:10.350Z,4.20
2019-05-28T03:25:38.422Z,4.60
2019-05-28T03:28:05.015Z,4.17
2019-05-28T03:30:31.496Z,5.57
2019-05-28T03:32:57.992Z,8.07
2019-05-28T03:35:24.458Z,4.73
2019-05-28T03:37:52.846Z,4.27
2019-05-28T03:40:26.014Z,5.90
2019-05-28T03:42:52.634Z,4.80
2019-05-28T03:45:18.995Z,5.93
2019-05-28T03:47:45.609Z,6.23
2019-05-28T03:50:12.080Z,7.40
2019-05-28T03:52:38.487Z,7.67
2019-05-28T03:55:06.863Z,7.13
2019-05-28T03:57:33.262Z,7.30
2019-05-28T03:59:59.619Z,10.17
2019-05-28T04:02:25.889Z,6.17
2019-05-28T04:04:52.487Z,7.67
2019-05-28T04:07:18.767Z,7.90
2019-05-28T04:09:45.158Z,4.73
2019-05-28T04:12:11.418Z,3.20
2019-05-28T04:14:37.703Z,4.97
2019-05-28T04:17:04.030Z,5.13
2019-05-28T04:19:30.770Z,4.27
2019-05-28T04:21:57.134Z,5.03
2019-05-28T04:24:23.415Z,4.30
2019-05-28T04:26:49.881Z,4.30
2019-05-28T04:29:16.634Z,5.00
2019-05-28T04:31:43.364Z,4.53
2019-05-28T04:34:11.118Z,3.70
2019-05-28T04:36:37.774Z,5.40
2019-05-28T04:39:06.541Z,4.33
2019-05-28T04:41:33.311Z,4.03
2019-05-28T04:43:59.566Z,3.90
2019-05-28T04:46:25.859Z,4.47
2019-05-28T04:48:52.158Z,4.50
2019-05-28T04:51:18.629Z,3.30
2019-05-28T04:53:45.265Z,4.90
2019-05-28T04:56:11.626Z,5.40
2019-05-28T04:58:38.114Z,3.83
2019-05-28T05:01:04.674Z,6.00
2019-05-28T05:03:31.292Z,6.20
2019-05-28T05:05:59.055Z,4.83
2019-05-28T05:08:25.426Z,4.77
2019-05-28T05:10:51.689Z,6.53
2019-05-28T05:13:17.982Z,4.43
2019-05-28T05:15:47.082Z,4.30
2019-05-28T05:18:12.488Z,5.23
2019-05-28T05:20:39.091Z,4.83
2019-05-28T05:23:05.560Z,5.63
2019-05-28T05:25:32.395Z,5.73
2019-05-28T05:27:59.574Z,4.97
2019-05-28T05:30:25.962Z,5.00
2019-05-28T05:32:52.587Z,5.43
2019-05-28T05:35:19.636Z,5.10
2019-05-28T05:37:45.904Z,5.60
2019-05-28T05:40:12.898Z,5.40
2019-05-28T05:42:39.267Z,5.57
2019-05-28T05:45:07.656Z,5.40
2019-05-28T05:47:34.575Z,6.13
2019-05-28T05:50:00.935Z,4.90
2019-05-28T05:52:27.538Z,5.30
2019-05-28T05:54:53.922Z,5.60
2019-05-28T05:57:20.313Z,5.43
2019-05-28T05:59:46.582Z,5.93
2019-05-28T06:02:13.274Z,5.83
2019-05-28T06:04:39.813Z,5.23
2019-05-28T06:07:06.216Z,5.87
2019-05-28T06:09:32.599Z,6.03
2019-05-28T06:11:59.341Z,5.17
2019-05-28T06:14:25.832Z,5.10
2019-05-28T06:16:52.499Z,5.97
2019-05-28T06:19:19.232Z,6.57
2019-05-28T06:21:45.968Z,6.00
2019-05-28T06:24:12.365Z,7.27
2019-05-28T06:26:38.722Z,5.47
2019-05-28T06:29:05.373Z,6.47
2019-05-28T06:31:32.839Z,5.87
2019-05-28T06:33:59.126Z,5.90
2019-05-28T06:36:25.390Z,7.30
2019-05-28T06:38:51.742Z,5.70
2019-05-28T06:41:18.035Z,6.23
2019-05-28T06:43:44.337Z,5.60
2019-05-28T06:46:10.706Z,6.73
2019-05-28T06:48:37.080Z,6.63
2019-05-28T06:51:03.383Z,6.07
2019-05-28T06:53:30.024Z,6.57
2019-05-28T06:55:56.651Z,7.57
2019-05-28T06:58:38.098Z,6.03
2019-05-28T07:00:51.119Z,6.77
2019-05-28T07:03:17.693Z,6.93
2019-05-28T07:05:44.107Z,7.10
2019-05-28T07:08:10.671Z,6.13
2019-05-28T07:10:36.967Z,5.87
2019-05-28T07:13:03.235Z,7.90
2019-05-28T07:15:29.859Z,9.53
2019-05-28T07:17:59.531Z,6.70
2019-05-28T07:20:24.763Z,8.17
2019-05-28T07:22:51.273Z,6.77
2019-05-28T07:25:18.155Z,8.17
2019-05-28T07:27:44.421Z,6.73
2019-05-28T07:30:11.233Z,6.53
2019-05-28T07:32:37.586Z,6.37
2019-05-28T07:35:06.371Z,7.27
2019-05-28T07:37:32.862Z,8.03
2019-05-28T07:39:59.412Z,6.93
2019-05-28T07:42:32.860Z,8.60
2019-05-28T07:44:54.685Z,7.20
2019-05-28T07:47:21.352Z,5.33
2019-05-28T07:49:48.619Z,6.63
2019-05-28T07:52:14.923Z,7.87
2019-05-28T07:54:41.287Z,6.70
2019-05-28T07:57:07.666Z,7.23
2019-05-28T07:59:34.224Z,5.47
2019-05-28T08:02:00.663Z,6.67
2019-05-28T08:04:27.193Z,8.30
2019-05-28T08:06:54.959Z,7.33
2019-05-28T08:09:21.857Z,6.83
2019-05-28T08:11:48.130Z,7.03
2019-05-28T08:14:14.522Z,7.07
2019-05-28T08:16:52.178Z,9.17
2019-05-28T08:19:09.119Z,7.00
2019-05-28T08:21:35.555Z,5.67
2019-05-28T08:24:01.922Z,5.37
2019-05-28T08:26:28.311Z,6.63
2019-05-28T08:28:54.570Z,7.27
2019-05-28T08:31:21.315Z,6.83
2019-05-28T08:33:48.123Z,10.13
2019-05-28T08:36:14.420Z,6.10
2019-05-28T08:38:40.880Z,7.10
2019-05-28T08:41:07.636Z,5.73
2019-05-28T08:43:34.372Z,6.70
2019-05-28T08:46:00.911Z,8.33
2019-05-28T08:48:27.279Z,8.90
2019-05-28T08:50:53.651Z,7.80
2019-05-28T08:53:20.123Z,7.00
2019-05-28T08:55:46.434Z,7.20
2019-05-28T08:58:13.073Z,8.37
2019-05-28T09:00:41.430Z,7.40
2019-05-28T09:03:08.521Z,9.10
2019-05-28T09:05:35.002Z,7.90
2019-05-28T09:08:01.808Z,6.57
2019-05-28T09:10:28.546Z,8.20
2019-05-28T09:12:54.836Z,8.57
2019-05-28T09:15:21.441Z,10.33
2019-05-28T09:17:49.127Z,8.87
2019-05-28T09:20:15.495Z,7.83
2019-05-28T09:22:41.951Z,7.60
2019-05-28T09:25:08.414Z,8.40
2019-05-28T09:27:35.111Z,7.27
2019-05-28T09:30:02.022Z,7.33
2019-05-28T09:32:28.595Z,7.83
2019-05-28T09:34:55.004Z,10.43
2019-05-28T09:37:21.380Z,8.77
2019-05-28T09:39:48.019Z,10.53
2019-05-28T09:42:14.492Z,7.50
2019-05-28T09:44:41.056Z,7.97
2019-05-28T09:47:07.436Z,8.80
2019-05-28T09:49:33.805Z,10.60
2019-05-28T09:52:00.870Z,10.43
2019-05-28T09:54:27.209Z,9.63
2019-05-28T09:56:53.637Z,8.83
2019-05-28T09:59:20.459Z,9.20
2019-05-28T10:01:47.031Z,9.60
2019-05-28T10:04:13.403Z,10.17
2019-05-28T10:06:41.784Z,8.00
2019-05-28T10:09:08.378Z,8.57
2019-05-28T10:11:35.083Z,10.87
2019-05-28T10:14:01.642Z,8.37
2019-05-28T10:16:28.159Z,9.00
2019-05-28T10:18:54.423Z,9.50
2019-05-28T10:21:20.715Z,9.00
2019-05-28T10:23:47.091Z,10.37
2019-05-28T10:26:13.474Z,7.50
2019-05-28T10:28:39.765Z,9.77
2019-05-28T10:31:06.227Z,10.13
2019-05-28T10:33:32.982Z,8.33
2019-05-28T10:35:59.338Z,8.60
2019-05-28T10:38:25.735Z,9.50
2019-05-28T10:40:51.995Z,11.20
2019-05-28T10:43:18.314Z,8.00
2019-05-28T10:45:44.681Z,7.00
2019-05-28T10:48:11.670Z,6.43
2019-05-28T10:50:38.351Z,5.33
2019-05-28T10:53:04.874Z,4.17
2019-05-28T10:55:31.295Z,4.63
2019-05-28T10:57:57.668Z,3.10
2019-05-28T11:00:25.831Z,4.67
2019-05-28T11:02:52.192Z,5.40
2019-05-28T11:05:20.381Z,4.43
2019-05-28T11:07:46.651Z,3.20
2019-05-28T11:10:23.697Z,2.90
2019-05-28T11:12:42.415Z,2.00
2019-05-28T11:15:10.625Z,1.60
2019-05-28T11:17:37.601Z,3.07
2019-05-28T11:20:06.415Z,2.37
2019-05-28T11:22:32.787Z,2.03
2019-05-28T11:24:59.163Z,3.80
2019-05-28T11:27:25.795Z,3.33
2019-05-28T11:29:52.454Z,4.17
2019-05-28T11:32:18.938Z,4.40
2019-05-28T11:34:46.316Z,3.40
2019-05-28T11:37:12.806Z,3.13
2019-05-28T11:39:39.283Z,3.43
2019-05-28T11:42:05.772Z,2.23
2019-05-28T11:44:32.052Z,2.07
2019-05-28T11:46:58.351Z,3.00
2019-05-28T11:49:24.728Z,3.87
2019-05-28T11:51:51.217Z,1.50
2019-05-28T11:54:17.488Z,2.47
2019-05-28T11:56:44.115Z,3.20
2019-05-28T11:59:12.718Z,3.27
2019-05-28T12:01:39.330Z,2.97
2019-05-28T12:04:05.611Z,2.70
2019-05-28T12:06:37.935Z,3.00
2019-05-28T12:09:00.198Z,3.00
2019-05-28T12:11:26.601Z,2.70
2019-05-28T12:13:53.059Z,1.73
2019-05-28T12:16:19.361Z,1.37
2019-05-28T12:18:45.751Z,4.23
2019-05-28T12:21:12.468Z,2.80
2019-05-28T12:23:38.955Z,4.13
2019-05-28T12:26:05.336Z,1.93
2019-05-28T12:28:37.800Z,2.80
2019-05-28T12:31:00.226Z,2.67
2019-05-28T12:33:26.520Z,2.47
2019-05-28T12:35:52.875Z,3.40
2019-05-28T12:38:19.254Z,3.30
2019-05-28T12:40:48.148Z,3.20
2019-05-28T12:43:13.848Z,3.47
2019-05-28T12:45:40.223Z,2.80
2019-05-28T12:48:12.215Z,2.67
2019-05-28T12:50:34.894Z,2.27
2019-05-28T12:53:01.739Z,3.17
2019-05-28T12:55:29.223Z,2.53
2019-05-28T12:57:55.651Z,3.63
2019-05-28T13:00:22.908Z,3.33
2019-05-28T13:02:49.222Z,3.23
2019-05-28T13:05:18.999Z,2.80
2019-05-28T13:07:45.474Z,4.67
2019-05-28T13:10:12.890Z,2.17
2019-05-28T13:12:39.736Z,2.23
2019-05-28T13:15:06.890Z,2.20
2019-05-28T13:17:34.483Z,3.33
2019-05-28T13:20:00.960Z,1.90
2019-05-28T13:22:27.348Z,2.50
2019-05-28T13:24:54.047Z,1.70
2019-05-28T13:27:20.590Z,3.30
2019-05-28T13:29:47.107Z,2.17
2019-05-28T13:32:14.571Z,3.20
2019-05-28T13:34:41.552Z,2.77
2019-05-28T13:37:08.089Z,1.93
2019-05-28T13:39:34.393Z,1.43
2019-05-28T13:42:01.032Z,3.50
2019-05-28T13:44:27.767Z,4.33
2019-05-28T13:46:54.043Z,3.33
2019-05-28T13:49:20.527Z,2.50
2019-05-28T13:51:47.070Z,2.90
2019-05-28T13:54:14.831Z,3.47
2019-05-28T13:56:41.488Z,3.07
2019-05-28T13:59:07.888Z,4.17
2019-05-28T14:01:34.280Z,3.17
2019-05-28T14:04:00.547Z,2.30
2019-05-28T14:06:26.831Z,2.90
2019-05-28T14:08:53.451Z,2.77
2019-05-28T14:11:19.863Z,3.23
2019-05-28T14:13:46.158Z,4.43
2019-05-28T14:16:12.751Z,2.73
2019-05-28T14:18:39.023Z,3.93
2019-05-28T14:21:05.482Z,2.60
2019-05-28T14:23:31.775Z,2.57
2019-05-28T14:25:58.052Z,2.77
2019-05-28T14:28:24.556Z,4.23
2019-05-28T14:31:00.042Z,3.03
2019-05-28T14:33:19.234Z,2.47
2019-05-28T14:35:45.619Z,2.03
2019-05-28T14:38:12.007Z,3.10
2019-05-28T14:40:38.604Z,2.67
2019-05-28T14:43:05.187Z,3.60
2019-05-28T14:45:32.764Z,2.20
2019-05-28T14:47:59.331Z,2.37
2019-05-28T14:50:25.598Z,3.37
2019-05-28T14:52:51.993Z,3.27
2019-05-28T14:55:19.772Z,2.33
2019-05-28T14:57:46.411Z,2.03
2019-05-28T15:00:16.098Z,3.93
2019-05-28T15:02:42.391Z,3.43
2019-05-28T15:05:09.862Z,2.70
2019-05-28T15:07:36.803Z,2.10
2019-05-28T15:10:06.056Z,3.60
2019-05-28T15:12:32.343Z,2.40
2019-05-28T15:14:58.638Z,3.37
2019-05-28T15:17:26.667Z,2.63
2019-05-28T15:19:53.210Z,2.43
2019-05-28T15:22:19.731Z,6.03
2019-05-28T15:24:45.986Z,2.57
2019-05-28T15:27:12.467Z,5.53
2019-05-28T15:29:39.030Z,3.43
2019-05-28T15:32:05.455Z,2.17
2019-05-28T15:34:31.739Z,2.50
2019-05-28T15:36:58.110Z,3.40
2019-05-28T15:39:39.165Z,3.03
2019-05-28T15:41:52.991Z,1.93
2019-05-28T15:44:19.386Z,3.97
2019-05-28T15:46:45.754Z,1.97
2019-05-28T15:49:12.466Z,2.37
2019-05-28T15:51:39.835Z,2.90
2019-05-28T15:54:06.142Z,1.03
2019-05-28T15:56:32.511Z,1.77
2019-05-28T15:58:58.784Z,2.47
2019-05-28T16:01:25.557Z,2.43
2019-05-28T16:03:52.083Z,4.30
2019-05-28T16:06:18.410Z,2.00
2019-05-28T16:08:45.054Z,2.87
2019-05-28T16:11:11.347Z,1.73
2019-05-28T16:13:37.639Z,1.97
2019-05-28T16:16:07.536Z,1.77
2019-05-28T16:18:32.234Z,1.30
2019-05-28T16:20:58.631Z,2.03
2019-05-28T16:23:24.995Z,2.33
2019-05-28T16:25:51.288Z,1.67
2019-05-28T16:28:17.857Z,2.17
2019-05-28T16:30:44.372Z,1.97
2019-05-28T16:33:10.767Z,2.03
2019-05-28T16:35:37.064Z,2.03
2019-05-28T16:38:03.440Z,3.90
2019-05-28T16:40:29.840Z,1.80
2019-05-28T16:42:56.318Z,1.40
2019-05-28T16:45:24.743Z,2.57
2019-05-28T16:47:51.122Z,1.80
2019-05-28T16:50:18.215Z,2.50
2019-05-28T16:52:44.606Z,2.37
2019-05-28T16:55:11.576Z,2.37
2019-05-28T16:57:37.975Z,1.80
2019-05-28T17:00:06.644Z,2.27
2019-05-28T17:02:33.793Z,3.30
2019-05-28T17:05:00.141Z,1.27
2019-05-28T17:07:26.535Z,2.30
2019-05-28T17:09:52.908Z,2.23
2019-05-28T17:12:19.185Z,1.87
2019-05-28T17:14:45.574Z,1.87
2019-05-28T17:17:12.263Z,2.13
2019-05-28T17:19:38.548Z,1.47
2019-05-28T17:22:04.823Z,2.40
2019-05-28T17:24:31.202Z,2.43
2019-05-28T17:26:57.575Z,1.50
2019-05-28T17:29:24.327Z,2.30
2019-05-28T17:31:50.840Z,1.37
2019-05-28T17:34:17.232Z,1.13
2019-05-28T17:36:43.701Z,1.13
2019-05-28T17:39:10.199Z,0.67
2019-05-28T17:41:36.562Z,2.07
2019-05-28T17:44:03.371Z,2.53
2019-05-28T17:46:49.619Z,2.67
2019-05-28T17:49:16.136Z,0.70
2019-05-28T17:51:42.521Z,1.07
2019-05-28T17:54:09.042Z,0.70
2019-05-28T17:56:35.439Z,1.33
2019-05-28T17:59:01.822Z,1.40
2019-05-28T18:01:28.341Z,2.03
2019-05-28T18:03:54.916Z,1.37
2019-05-28T18:06:21.211Z,2.10
2019-05-28T18:08:48.604Z,3.30
2019-05-28T18:11:15.108Z,2.90
2019-05-28T18:13:41.410Z,1.90
2019-05-28T18:16:07.836Z,2.47
2019-05-28T18:18:34.336Z,2.17
2019-05-28T18:21:00.843Z,4.07
2019-05-28T18:23:27.557Z,1.97
2019-05-28T18:25:54.413Z,1.63
2019-05-28T18:28:20.984Z,3.00
2019-05-28T18:30:47.515Z,2.70
2019-05-28T18:33:14.113Z,2.43
2019-05-28T18:35:41.631Z,1.17
2019-05-28T18:38:08.096Z,1.80
2019-05-28T18:40:34.518Z,2.30
2019-05-28T18:43:00.975Z,2.13
2019-05-28T18:45:27.263Z,4.00
2019-05-28T18:47:53.672Z,3.07
2019-05-28T18:50:20.255Z,2.60
2019-05-28T18:52:46.567Z,3.77
2019-05-28T18:55:13.260Z,3.80
2019-05-28T18:57:39.666Z,4.33
2019-05-28T19:00:07.487Z,2.93
2019-05-28T19:02:34.492Z,5.17
2019-05-28T19:05:00.877Z,3.37
2019-05-28T19:07:27.281Z,4.60
2019-05-28T19:09:53.669Z,5.03
2019-05-28T19:12:20.134Z,4.40
2019-05-28T19:14:46.462Z,4.47
2019-05-28T19:17:13.167Z,5.57
2019-05-28T19:19:39.675Z,5.63
2019-05-28T19:22:06.371Z,6.03
2019-05-28T19:24:33.135Z,6.20
2019-05-28T19:27:00.025Z,4.93
2019-05-28T19:29:26.773Z,4.70
2019-05-28T19:31:53.268Z,4.40
2019-05-28T19:34:19.808Z,3.83
2019-05-28T19:36:46.363Z,3.10
2019-05-28T19:39:14.256Z,3.70
2019-05-28T19:41:53.609Z,3.80
2019-05-28T19:44:09.033Z,3.47
2019-05-28T19:46:35.423Z,4.13
2019-05-28T19:49:01.826Z,2.43
2019-05-28T19:51:28.657Z,2.13
2019-05-28T19:53:55.036Z,1.83
2019-05-28T19:56:21.441Z,2.03
2019-05-28T19:58:47.812Z,3.00
2019-05-28T20:01:14.497Z,2.63
2019-05-28T20:03:41.335Z,1.73
2019-05-28T20:06:07.645Z,1.67
2019-05-28T20:08:34.289Z,2.20
2019-05-28T20:11:00.667Z,2.10
2019-05-28T20:13:27.046Z,2.67
2019-05-28T20:15:56.691Z,2.60
2019-05-28T20:18:26.763Z,2.97
2019-05-28T20:20:50.063Z,3.27
2019-05-28T20:23:17.226Z,2.83
2019-05-28T20:25:47.506Z,2.97
2019-05-28T20:28:13.384Z,2.80
2019-05-28T20:30:39.796Z,1.67
2019-05-28T20:33:07.298Z,2.73
2019-05-28T20:35:33.887Z,2.57
2019-05-28T20:38:04.539Z,2.23
2019-05-28T20:40:29.676Z,2.67
2019-05-28T20:42:56.188Z,2.40
2019-05-28T20:45:22.875Z,2.43
2019-05-28T20:47:49.279Z,1.50
2019-05-28T20:50:16.754Z,2.00
2019-05-28T20:52:43.163Z,1.67
2019-05-28T20:55:10.265Z,2.50
2019-05-28T20:57:36.650Z,5.10
2019-05-28T21:00:10.093Z,3.97
2019-05-28T21:02:37.931Z,5.87
2019-05-28T21:05:06.245Z,5.00
2019-05-28T21:07:32.763Z,5.60
2019-05-28T21:09:59.152Z,3.20
2019-05-28T21:12:25.559Z,3.27
2019-05-28T21:14:52.937Z,2.43
2019-05-28T21:17:19.381Z,3.07
2019-05-28T21:19:46.066Z,2.60
2019-05-28T21:22:25.768Z,1.90
2019-05-28T21:24:41.183Z,3.53
2019-05-28T21:27:07.647Z,2.57
2019-05-28T21:29:34.388Z,2.60
2019-05-28T21:32:00.887Z,2.83
2019-05-28T21:34:27.638Z,3.77
2019-05-28T21:36:54.914Z,2.80
2019-05-28T21:39:21.431Z,2.93
2019-05-28T21:41:47.702Z,2.60
2019-05-28T21:44:14.007Z,3.40
2019-05-28T21:46:40.624Z,3.13
2019-05-28T21:49:06.910Z,2.90
2019-05-28T21:51:33.214Z,2.80
2019-05-28T21:53:59.615Z,2.53
2019-05-28T21:56:27.087Z,2.67
2019-05-28T21:58:53.559Z,2.07
2019-05-28T22:01:24.041Z,2.80
2019-05-28T22:03:50.879Z,2.27
2019-05-28T22:06:18.396Z,2.53
2019-05-28T22:08:44.769Z,2.63
2019-05-28T22:11:12.304Z,3.17
2019-05-28T22:13:38.787Z,3.23
2019-05-28T22:16:05.193Z,2.37
2019-05-28T22:18:31.501Z,2.93
2019-05-28T22:20:58.265Z,3.17
2019-05-28T22:23:24.661Z,3.03
2019-05-28T22:25:51.560Z,2.23
2019-05-28T22:28:18.030Z,2.47
2019-05-28T22:30:44.517Z,2.57
2019-05-28T22:33:11.010Z,1.90
2019-05-28T22:35:37.421Z,2.47
2019-05-28T22:38:04.071Z,3.50
2019-05-28T22:40:31.988Z,2.70
2019-05-28T22:42:58.607Z,3.73
2019-05-28T22:45:24.969Z,3.17
2019-05-28T22:47:51.701Z,2.13
2019-05-28T22:50:22.982Z,4.77
2019-05-28T22:52:46.503Z,2.87
2019-05-28T22:55:13.816Z,2.13
2019-05-28T22:57:40.250Z,3.30
2019-05-28T23:00:08.833Z,3.03
2019-05-28T23:02:35.420Z,3.03
2019-05-28T23:05:05.146Z,2.53
2019-05-28T23:07:32.175Z,3.53
2019-05-28T23:09:59.524Z,3.10
2019-05-28T23:12:26.104Z,1.80
2019-05-28T23:14:52.603Z,1.33
2019-05-28T23:17:19.077Z,3.03
2019-05-28T23:19:46.649Z,3.67
2019-05-28T23:22:13.771Z,1.40
2019-05-28T23:24:40.393Z,2.40
2019-05-28T23:27:07.884Z,1.80
2019-05-28T23:29:34.579Z,2.80
2019-05-28T23:32:01.904Z,2.93
2019-05-28T23:34:28.380Z,2.50
2019-05-28T23:36:54.695Z,4.13
2019-05-28T23:39:21.076Z,2.93
2019-05-28T23:41:47.695Z,2.80
2019-05-28T23:44:14.334Z,4.77
2019-05-28T23:46:40.626Z,3.10
2019-05-28T23:49:08.085Z,2.30
2019-05-28T23:51:34.606Z,3.47
2019-05-28T23:54:01.299Z,2.97
2019-05-28T23:56:27.740Z,2.57
2019-05-28T23:58:54.116Z,2.07
